Elk Lake, Canada
Current Conditions -  °F | °C
As of 1:22 PM on Thursday 29 Jan 2015 (Local Time) from CYXR Reporting Station
Light Snow Light Snow  
Wind Chill:   Ceiling: 1500
Heat Index: 19°   Visibility: 2.5mi
Dew Point: 18°   Wind: 10mph
Humidity: 93%   Direction: 130°SE
Pressure: 29.73"   Gusts: NA
Location:  47.72°N, 80.33°W
Report Text: CYXR 291822Z AUTO 13009KT 2 1/2SM -SN OVC015 M07/M08 A2973 RMK SLP085
Loading
Personal Weather Stations






























Interactive Weather Map New forecast layout! Learn more

10-Day Weather Forecast

Advertisements
Track Severe Weather on mobile